Friday, March 27, 2015, 11:37 AM EDT

KEZF, Fredericksburg, Shannon Airport

Location: Fredericksburg, VA, United States Lat: 38.267
Local Time: 11:37 AM EDT (15:37 GMT) Lon: -77.45
Time Zone: US/Eastern Elev: 85 ft

Show me the last for .
Show Decoded

2015-03-27 11:15 METAR KEZF 271515Z AUTO 33008KT 10SM -RA BKN018 BKN024 OVC032 06/05 A2985 RMK
                 AO2 T00570053 =
2015-03-27 10:55 METAR KEZF 271455Z AUTO 01004KT 7SM -RA BKN022 OVC027 06/05 A2982 RMK AO2 P0002
                 60007 T00570053 =
2015-03-27 10:35 METAR KEZF 271435Z AUTO 02007KT 10SM -RA SCT018 OVC027 06/05 A2982 RMK AO2 P0001
                 T00560048 =
2015-03-27 10:15 METAR KEZF 271415Z AUTO 02005KT 5SM RA OVC018 06/05 A2983 RMK AO2 P0001
                 T00550050 =
2015-03-27 09:55 METAR KEZF 271355Z AUTO 02007KT 7SM RA OVC020 06/05 A2983 RMK AO2 P0003
                 T00570051 =
2015-03-27 09:35 METAR KEZF 271335Z AUTO 02010G16KT 7SM RA SCT010 BKN018 OVC023 06/05 A2983 RMK
                 AO2 P0002 T00590052 =
2015-03-27 09:15 METAR KEZF 271315Z AUTO 01003KT 7SM -RA BKN013 OVC021 06/06 A2982 RMK AO2 P0001
                 T00600060 =
2015-03-27 08:55 METAR KEZF 271255Z AUTO 02005KT 7SM -RA BKN015 OVC021 06/06 A2981 RMK AO2 P0002
                 T00600060 =
2015-03-27 08:35 METAR KEZF 271235Z AUTO 01004KT 10SM -RA SCT015 OVC023 06/06 A2982 RMK AO2 P0001
                 T00600060 =
2015-03-27 08:15 METAR KEZF 271215Z AUTO 01003KT 7SM -RA SCT009 BKN030 OVC050 06/06 A2981 RMK AO2
                 T00600060 =
2015-03-27 07:55 METAR KEZF 271155Z AUTO 02004KT 7SM -RA SCT011 BKN039 OVC050 06/06 A2981 RMK AO2
                 60004 70049 T00580058 10092 20058 =
2015-03-27 07:35 METAR KEZF 271135Z AUTO 36005KT 7SM DZ SCT011 BKN049 OVC080 06/06 A2980 RMK AO2
                 T00600060 =
2015-03-27 07:15 METAR KEZF 271115Z AUTO 01006KT 10SM -RA SCT013 SCT030 OVC075 06/06 A2979 RMK
                 AO2 T00600060 =
2015-03-27 06:55 METAR KEZF 271055Z AUTO 35006KT 10SM DZ SCT013 BKN050 OVC080 06/06 A2979 RMK AO2
                 T00610060 =
2015-03-27 06:35 METAR KEZF 271035Z AUTO 35005KT 10SM DZ BKN013 BKN043 OVC070 07/06 A2979 RMK AO2
                 T00650062 =
2015-03-27 06:15 METAR KEZF 271015Z AUTO 34005G15KT 10SM SCT013 SCT020 OVC070 07/06 A2979 RMK AO2
                 T00650062 =
2015-03-27 05:35 METAR KEZF 270935Z AUTO 36010G16KT 10SM DZ SCT012 BKN018 OVC055 07/07 A2979 RMK
                 AO2 T00700069 =
2015-03-27 05:15 METAR KEZF 270915Z AUTO 35006KT 7SM RA BKN012 BKN021 OVC055 08/08 A2980 RMK AO2
                 T00750075 =
2015-03-27 04:55 METAR KEZF 270855Z AUTO 36009KT 7SM -RA SCT015 SCT021 OVC055 08/08 A2980 RMK AO2
                 P0001 60003 T00750075 =
2015-03-27 04:35 METAR KEZF 270835Z AUTO 01004KT 7SM DZ SCT012 BKN048 OVC055 08/08 A2980 RMK AO2
                 P0001 T00780078 =
2015-03-27 04:15 METAR KEZF 270815Z AUTO 35007KT 7SM DZ SCT040 OVC055 08/08 A2981 RMK AO2
                 T00800080 =
2015-03-27 03:50 METAR KEZF 270750Z AUTO 35007KT 10SM RA SCT026 BKN038 OVC049 08/08 A2981 RMK AO2
                 P0001 T00810080 =
2015-03-27 03:35 METAR KEZF 270735Z AUTO 34008KT 10SM RA OVC049 08/08 A2980 RMK AO2 P0001
                 T00830079 =
2015-03-27 03:15 METAR KEZF 270715Z AUTO 35009G15KT 10SM DZ OVC049 09/08 A2978 RMK AO2 P0001
                 T00850080 =
2015-03-27 02:55 METAR KEZF 270655Z AUTO 35008G14KT 10SM DZ OVC049 09/08 A2978 RMK AO2 P0001
                 T00850081 =
2015-03-27 02:35 METAR KEZF 270635Z AUTO 35008KT 10SM RA OVC047 09/09 A2978 RMK AO2 P0001
                 T00880085 =
2015-03-27 02:15 METAR KEZF 270615Z AUTO 36009G15KT 10SM DZ OVC043 09/09 A2978 RMK AO2 P0001
                 T00900088 =
2015-03-27 01:55 METAR KEZF 270555Z AUTO 36009G15KT 10SM -DZ OVC043 09/09 A2977 RMK AO2 P0001
                 60032 T00920085 10227 20092 402540091 =
2015-03-27 01:35 METAR KEZF 270535Z AUTO 35008KT 7SM RA OVC043 10/10 A2977 RMK AO2 P0001
                 T00950095 =
2015-03-27 01:15 METAR KEZF 270515Z AUTO 01007KT 5SM -RA OVC043 10/10 A2976 RMK AO2 P0001
                 T00950095 =
2015-03-27 00:55 METAR KEZF 270455Z AUTO 36005KT 5SM RA OVC041 10/10 A2978 RMK AO2 P0007
                 T01000096 =
2015-03-27 00:35 METAR KEZF 270435Z AUTO 36009G17KT 10SM RA SCT015 SCT024 OVC043 11/10 A2976 RMK
                 AO2 P0004 T01050095 =
2015-03-27 00:15 METAR KEZF 270415Z AUTO 35011G14KT 5SM +RA SCT031 OVC036 11/11 A2976 RMK AO2
                 P0003 T01140108 =
2015-03-26 23:55 METAR KEZF 270355Z AUTO 36013G20KT 10SM RA SCT017 OVC028 12/11 A2973 RMK AO2
                 P0008 T01200112 =
2015-03-26 23:35 METAR KEZF 270335Z AUTO 01011G19KT 5SM +RA SCT010 BKN016 OVC021 13/12 A2973 RMK
                 AO2 P0005 T01300121 =
2015-03-26 23:15 METAR KEZF 270315Z AUTO 36006KT 10SM RA BKN015 OVC028 15/14 A2971 RMK AO2 P0002
                 T01450143 =
2015-03-26 22:55 METAR KEZF 270255Z AUTO 35007KT 7SM +RA OVC030 15/14 A2970 RMK AO2 P0016 60016
                 T01470144 =
2015-03-26 22:35 METAR KEZF 270235Z AUTO 33007KT 4SM +RA SCT024 BKN042 OVC048 16/15 A2970 RMK AO2
                 P0007 T01600151 =
2015-03-26 22:15 METAR KEZF 270215Z AUTO 34010G20KT 5SM RA SCT040 OVC048 17/15 A2968 RMK AO2
                 P0001 T01730145 =
2015-03-26 21:55 METAR KEZF 270155Z AUTO 25006KT 10SM -RA SCT050 BKN055 OVC090 21/13 A2965 RMK
                 AO2 T02110129 =
2015-03-26 21:35 METAR KEZF 270135Z AUTO 23006KT 10SM BKN100 21/13 A2964 RMK AO2 T02070128 =
2015-03-26 21:15 METAR KEZF 270115Z AUTO 22005KT 10SM CLR 21/13 A2964 RMK AO2 T02110126 =
2015-03-26 20:55 METAR KEZF 270055Z AUTO 24004KT 10SM CLR 22/13 A2962 RMK AO2 T02150126 =
2015-03-26 20:35 METAR KEZF 270035Z AUTO 23005KT 10SM CLR 22/13 A2961 RMK AO2 T02200125 =
2015-03-26 20:15 METAR KEZF 270015Z AUTO 22006KT 10SM CLR 22/13 A2961 RMK AO2 T02210125 =
2015-03-26 19:55 METAR KEZF 262355Z AUTO 21008G15KT 10SM SCT075 23/12 A2961 RMK AO2 T02270122
                 10254 20208 =
2015-03-26 19:35 METAR KEZF 262335Z AUTO 23007KT 10SM SCT075 23/12 A2962 RMK AO2 T02300121 =
2015-03-26 19:15 METAR KEZF 262315Z AUTO 22008KT 10SM CLR 23/12 A2961 RMK AO2 T02310120 =
2015-03-26 18:55 METAR KEZF 262255Z AUTO 21014G20KT 10SM CLR 24/12 A2961 RMK AO2 T02400116 =
2015-03-26 18:35 METAR KEZF 262235Z AUTO 22009G14KT 10SM CLR 24/12 A2962 RMK AO2 T02420117 =
2015-03-26 18:15 METAR KEZF 262215Z AUTO 21012G18KT 7SM CLR 25/12 A2961 RMK AO2 T02450116 =
2015-03-26 17:55 METAR KEZF 262155Z AUTO 21017G22KT 10SM CLR 25/12 A2961 RMK AO2 T02480116 =
2015-03-26 17:35 METAR KEZF 262135Z AUTO 20011G17KT 10SM CLR 25/12 A2961 RMK AO2 T02520115 =
2015-03-26 17:15 METAR KEZF 262115Z AUTO 20012G19KT 10SM CLR 25/12 A2960 RMK AO2 T02500116 =
2015-03-26 16:55 METAR KEZF 262055Z AUTO 21010G20KT 10SM CLR 25/12 A2962 RMK AO2 T02510121 =
2015-03-26 16:15 METAR KEZF 262015Z AUTO 21013G22KT 10SM CLR 25/13 A2965 RMK AO2 T02520128 =
2015-03-26 15:55 METAR KEZF 261955Z AUTO 20018G21KT 10SM CLR 25/13 A2965 RMK AO2 T02480134 =
2015-03-26 15:35 METAR KEZF 261935Z AUTO 22014G22KT 10SM CLR 24/14 A2966 RMK AO2 T02430137 =
2015-03-26 15:15 METAR KEZF 261915Z AUTO 21013G23KT 10SM CLR 24/14 A2967 RMK AO2 T02380143 =
2015-03-26 14:55 METAR KEZF 261855Z AUTO 21016G24KT 10SM CLR 24/14 A2968 RMK AO2 T02350144 =
2015-03-26 14:35 METAR KEZF 261835Z AUTO 20015G22KT 10SM SCT028 SCT075 SCT110 23/15 A2970 RMK AO2
                 T02250150 =
2015-03-26 14:15 METAR KEZF 261815Z AUTO 22015G22KT 10SM SCT026 SCT110 22/16 A2972 RMK AO2
                 T02180155 =
2015-03-26 13:55 METAR KEZF 261755Z AUTO 21011G16KT 10SM SCT015 21/16 A2974 RMK AO2 60013
                 T02070162 10207 20102 =
2015-03-26 13:35 METAR KEZF 261735Z AUTO 21013G17KT 10SM SCT013 19/18 A2976 RMK AO2 T01940175 =
2015-03-26 13:15 METAR KEZF 261715Z AUTO 19012G17KT 10SM BKN009 OVC013 18/18 A2978 RMK AO2
                 T01840179 =
2015-03-26 12:35 METAR KEZF 261635Z AUTO 19005KT 10SM OVC006 15/15 A2982 RMK AO2 P0001 T01510151
                 =
2015-03-26 12:15 METAR KEZF 261615Z AUTO 20006KT 5SM RA OVC008 14/14 A2985 RMK AO2 P0001
                 T01430143 =
2015-03-26 11:55 METAR KEZF 261555Z AUTO 21006KT 10SM BKN006 OVC012 14/14 A2986 RMK AO2 T01410141
                 =

Support USWX by starting your Amazon purchase here.